sensor_id;sensor_type;location;lat;lon;timestamp;P1;durP1;ratioP1;P2;durP2;ratioP2
27424;SDS011;15244;49.088;11.886;2022-11-12T00:05:16;5.18;;;4.88;;
27424;SDS011;15244;49.088;11.886;2022-11-12T00:10:37;5.05;;;4.75;;
27424;SDS011;15244;49.088;11.886;2022-11-12T00:15:57;4.45;;;4.15;;
27424;SDS011;15244;49.088;11.886;2022-11-12T00:21:17;4.25;;;3.85;;
27424;SDS011;15244;49.088;11.886;2022-11-12T00:26:38;3.85;;;3.53;;
27424;SDS011;15244;49.088;11.886;2022-11-12T00:31:58;3.47;;;3.28;;
27424;SDS011;15244;49.088;11.886;2022-11-12T00:37:18;3.28;;;3.10;;
27424;SDS011;15244;49.088;11.886;2022-11-12T00:42:39;3.10;;;2.90;;
27424;SDS011;15244;49.088;11.886;2022-11-12T00:48:00;4.22;;;3.92;;
27424;SDS011;15244;49.088;11.886;2022-11-12T00:53:20;3.85;;;3.65;;
27424;SDS011;15244;49.088;11.886;2022-11-12T00:58:40;3.03;;;2.90;;
27424;SDS011;15244;49.088;11.886;2022-11-12T01:04:01;3.92;;;3.63;;
27424;SDS011;15244;49.088;11.886;2022-11-12T01:09:21;3.40;;;3.20;;
27424;SDS011;15244;49.088;11.886;2022-11-12T01:14:42;3.22;;;3.03;;
27424;SDS011;15244;49.088;11.886;2022-11-12T01:20:02;3.00;;;2.80;;
27424;SDS011;15244;49.088;11.886;2022-11-12T01:25:23;2.97;;;2.80;;
27424;SDS011;15244;49.088;11.886;2022-11-12T01:30:43;3.58;;;3.38;;
27424;SDS011;15244;49.088;11.886;2022-11-12T01:36:03;3.17;;;2.88;;
27424;SDS011;15244;49.088;11.886;2022-11-12T01:41:25;3.90;;;2.65;;
27424;SDS011;15244;49.088;11.886;2022-11-12T01:47:05;3.33;;;3.03;;
27424;SDS011;15244;49.088;11.886;2022-11-12T01:52:39;3.10;;;2.10;;
27424;SDS011;15244;49.088;11.886;2022-11-12T01:58:08;1.75;;;1.65;;
27424;SDS011;15244;49.088;11.886;2022-11-12T02:03:30;1.80;;;1.70;;
27424;SDS011;15244;49.088;11.886;2022-11-12T02:08:51;2.13;;;2.03;;
27424;SDS011;15244;49.088;11.886;2022-11-12T02:14:12;1.90;;;1.80;;
27424;SDS011;15244;49.088;11.886;2022-11-12T02:19:35;1.98;;;1.88;;
27424;SDS011;15244;49.088;11.886;2022-11-12T02:24:56;2.00;;;1.90;;
27424;SDS011;15244;49.088;11.886;2022-11-12T02:30:17;2.05;;;1.95;;
27424;SDS011;15244;49.088;11.886;2022-11-12T02:35:38;2.20;;;2.10;;
27424;SDS011;15244;49.088;11.886;2022-11-12T02:40:58;2.55;;;2.30;;
27424;SDS011;15244;49.088;11.886;2022-11-12T02:46:18;2.42;;;2.33;;
27424;SDS011;15244;49.088;11.886;2022-11-12T02:51:39;2.08;;;1.98;;
27424;SDS011;15244;49.088;11.886;2022-11-12T02:56:59;2.40;;;2.30;;
27424;SDS011;15244;49.088;11.886;2022-11-12T03:02:19;3.05;;;2.13;;
27424;SDS011;15244;49.088;11.886;2022-11-12T03:07:39;2.92;;;2.30;;
27424;SDS011;15244;49.088;11.886;2022-11-12T03:13:00;2.58;;;2.47;;
27424;SDS011;15244;49.088;11.886;2022-11-12T03:18:20;2.65;;;2.55;;
27424;SDS011;15244;49.088;11.886;2022-11-12T03:23:40;2.97;;;2.80;;
27424;SDS011;15244;49.088;11.886;2022-11-12T03:29:01;2.95;;;2.75;;
27424;SDS011;15244;49.088;11.886;2022-11-12T03:34:21;2.67;;;2.47;;
27424;SDS011;15244;49.088;11.886;2022-11-12T03:39:41;2.58;;;2.45;;
27424;SDS011;15244;49.088;11.886;2022-11-12T03:45:02;2.50;;;2.40;;
27424;SDS011;15244;49.088;11.886;2022-11-12T03:50:24;2.30;;;2.10;;
27424;SDS011;15244;49.088;11.886;2022-11-12T03:55:46;2.33;;;1.73;;
27424;SDS011;15244;49.088;11.886;2022-11-12T04:01:07;1.73;;;1.63;;
27424;SDS011;15244;49.088;11.886;2022-11-12T04:06:27;1.88;;;1.77;;
27424;SDS011;15244;49.088;11.886;2022-11-12T04:12:06;1.60;;;1.60;;
27424;SDS011;15244;49.088;11.886;2022-11-12T04:17:44;1.40;;;1.38;;
27424;SDS011;15244;49.088;11.886;2022-11-12T04:23:23;1.30;;;1.30;;
27424;SDS011;15244;49.088;11.886;2022-11-12T04:28:43;1.50;;;1.40;;
27424;SDS011;15244;49.088;11.886;2022-11-12T04:34:23;1.60;;;1.50;;
27424;SDS011;15244;49.088;11.886;2022-11-12T04:39:50;1.40;;;1.40;;
27424;SDS011;15244;49.088;11.886;2022-11-12T04:45:10;1.40;;;1.40;;
27424;SDS011;15244;49.088;11.886;2022-11-12T04:50:31;1.30;;;1.20;;
27424;SDS011;15244;49.088;11.886;2022-11-12T04:55:51;1.50;;;1.50;;
27424;SDS011;15244;49.088;11.886;2022-11-12T05:01:13;1.67;;;1.35;;
27424;SDS011;15244;49.088;11.886;2022-11-12T05:06:33;1.45;;;1.35;;
27424;SDS011;15244;49.088;11.886;2022-11-12T05:12:12;1.23;;;1.23;;
27424;SDS011;15244;49.088;11.886;2022-11-12T05:17:32;1.35;;;1.30;;
27424;SDS011;15244;49.088;11.886;2022-11-12T05:22:52;1.00;;;1.00;;
27424;SDS011;15244;49.088;11.886;2022-11-12T05:28:25;1.40;;;1.30;;
27424;SDS011;15244;49.088;11.886;2022-11-12T05:33:46;1.17;;;1.17;;
27424;SDS011;15244;49.088;11.886;2022-11-12T05:39:06;1.00;;;1.00;;
27424;SDS011;15244;49.088;11.886;2022-11-12T05:44:26;1.20;;;1.20;;
27424;SDS011;15244;49.088;11.886;2022-11-12T05:49:46;1.48;;;1.38;;
27424;SDS011;15244;49.088;11.886;2022-11-12T05:55:06;1.27;;;1.27;;
27424;SDS011;15244;49.088;11.886;2022-11-12T06:00:27;1.65;;;1.52;;
27424;SDS011;15244;49.088;11.886;2022-11-12T06:05:47;1.33;;;1.15;;
27424;SDS011;15244;49.088;11.886;2022-11-12T06:11:07;2.03;;;1.90;;
27424;SDS011;15244;49.088;11.886;2022-11-12T06:16:28;1.20;;;1.20;;
27424;SDS011;15244;49.088;11.886;2022-11-12T06:21:48;1.13;;;0.95;;
27424;SDS011;15244;49.088;11.886;2022-11-12T06:27:09;2.70;;;1.25;;
27424;SDS011;15244;49.088;11.886;2022-11-12T06:32:29;1.42;;;1.10;;
27424;SDS011;15244;49.088;11.886;2022-11-12T06:37:49;1.05;;;1.05;;
27424;SDS011;15244;49.088;11.886;2022-11-12T06:43:10;1.08;;;1.08;;
27424;SDS011;15244;49.088;11.886;2022-11-12T06:48:30;9.57;;;1.50;;
27424;SDS011;15244;49.088;11.886;2022-11-12T06:53:51;1.50;;;1.38;;
27424;SDS011;15244;49.088;11.886;2022-11-12T06:59:11;1.10;;;1.10;;
27424;SDS011;15244;49.088;11.886;2022-11-12T07:04:34;1.23;;;0.82;;
27424;SDS011;15244;49.088;11.886;2022-11-12T07:09:54;1.02;;;1.02;;
27424;SDS011;15244;49.088;11.886;2022-11-12T07:15:14;1.10;;;1.08;;
27424;SDS011;15244;49.088;11.886;2022-11-12T07:20:34;0.77;;;0.77;;
27424;SDS011;15244;49.088;11.886;2022-11-12T07:26:02;1.30;;;1.30;;
27424;SDS011;15244;49.088;11.886;2022-11-12T07:31:22;1.20;;;1.20;;
27424;SDS011;15244;49.088;11.886;2022-11-12T07:36:45;1.48;;;1.38;;
27424;SDS011;15244;49.088;11.886;2022-11-12T07:42:07;1.88;;;1.77;;
27424;SDS011;15244;49.088;11.886;2022-11-12T07:47:27;2.03;;;1.92;;
27424;SDS011;15244;49.088;11.886;2022-11-12T07:52:47;1.80;;;1.70;;
27424;SDS011;15244;49.088;11.886;2022-11-12T07:58:09;3.05;;;2.30;;
27424;SDS011;15244;49.088;11.886;2022-11-12T08:03:29;2.20;;;2.10;;
27424;SDS011;15244;49.088;11.886;2022-11-12T08:08:50;3.13;;;1.70;;
27424;SDS011;15244;49.088;11.886;2022-11-12T08:14:11;2.28;;;1.58;;
27424;SDS011;15244;49.088;11.886;2022-11-12T08:19:32;1.88;;;1.77;;
27424;SDS011;15244;49.088;11.886;2022-11-12T08:24:52;2.45;;;2.30;;
27424;SDS011;15244;49.088;11.886;2022-11-12T08:30:14;2.92;;;2.70;;
27424;SDS011;15244;49.088;11.886;2022-11-12T08:35:36;2.45;;;2.25;;
27424;SDS011;15244;49.088;11.886;2022-11-12T08:41:00;3.92;;;2.70;;
27424;SDS011;15244;49.088;11.886;2022-11-12T08:46:21;2.70;;;2.50;;
27424;SDS011;15244;49.088;11.886;2022-11-12T08:51:41;2.42;;;2.33;;
27424;SDS011;15244;49.088;11.886;2022-11-12T08:57:06;2.33;;;2.13;;
27424;SDS011;15244;49.088;11.886;2022-11-12T09:02:26;2.20;;;2.10;;
27424;SDS011;15244;49.088;11.886;2022-11-12T09:07:46;3.47;;;3.28;;
27424;SDS011;15244;49.088;11.886;2022-11-12T09:13:10;4.45;;;4.13;;
27424;SDS011;15244;49.088;11.886;2022-11-12T09:18:31;5.10;;;4.60;;
27424;SDS011;15244;49.088;11.886;2022-11-12T09:23:52;4.03;;;3.72;;
27424;SDS011;15244;49.088;11.886;2022-11-12T09:29:14;3.67;;;3.38;;
27424;SDS011;15244;49.088;11.886;2022-11-12T09:34:34;3.88;;;3.58;;
27424;SDS011;15244;49.088;11.886;2022-11-12T09:39:54;4.03;;;3.70;;
27424;SDS011;15244;49.088;11.886;2022-11-12T09:45:21;3.45;;;3.25;;
27424;SDS011;15244;49.088;11.886;2022-11-12T09:50:51;4.32;;;3.92;;
27424;SDS011;15244;49.088;11.886;2022-11-12T09:56:20;3.97;;;3.67;;
27424;SDS011;15244;49.088;11.886;2022-11-12T20:18:04;6.93;;;6.43;;
27424;SDS011;15244;49.088;11.886;2022-11-12T20:23:25;5.93;;;5.53;;
27424;SDS011;15244;49.088;11.886;2022-11-12T20:28:46;4.95;;;4.65;;
27424;SDS011;15244;49.088;11.886;2022-11-12T20:34:07;3.78;;;3.58;;
27424;SDS011;15244;49.088;11.886;2022-11-12T20:39:27;4.03;;;3.83;;
27424;SDS011;15244;49.088;11.886;2022-11-12T20:44:47;4.22;;;4.03;;
27424;SDS011;15244;49.088;11.886;2022-11-12T20:50:08;4.38;;;4.18;;
27424;SDS011;15244;49.088;11.886;2022-11-12T20:55:29;5.05;;;4.75;;
27424;SDS011;15244;49.088;11.886;2022-11-12T21:00:51;4.40;;;3.65;;
27424;SDS011;15244;49.088;11.886;2022-11-12T21:06:12;5.95;;;3.30;;
27424;SDS011;15244;49.088;11.886;2022-11-12T21:11:34;3.20;;;3.10;;
27424;SDS011;15244;49.088;11.886;2022-11-12T21:16:54;3.38;;;3.13;;
27424;SDS011;15244;49.088;11.886;2022-11-12T21:22:15;3.13;;;2.92;;
27424;SDS011;15244;49.088;11.886;2022-11-12T21:27:35;3.30;;;3.10;;
27424;SDS011;15244;49.088;11.886;2022-11-12T21:32:57;3.45;;;3.25;;
27424;SDS011;15244;49.088;11.886;2022-11-12T21:38:18;4.47;;;4.18;;
27424;SDS011;15244;49.088;11.886;2022-11-12T21:43:38;4.50;;;4.25;;
27424;SDS011;15244;49.088;11.886;2022-11-12T21:49:02;3.65;;;3.45;;
27424;SDS011;15244;49.088;11.886;2022-11-12T21:54:22;3.88;;;3.67;;
27424;SDS011;15244;49.088;11.886;2022-11-12T21:59:43;4.05;;;3.80;;
27424;SDS011;15244;49.088;11.886;2022-11-12T22:05:04;3.97;;;3.78;;
27424;SDS011;15244;49.088;11.886;2022-11-12T22:10:24;3.80;;;3.60;;
27424;SDS011;15244;49.088;11.886;2022-11-12T22:15:45;2.80;;;2.70;;
27424;SDS011;15244;49.088;11.886;2022-11-12T22:21:06;3.08;;;2.88;;
27424;SDS011;15244;49.088;11.886;2022-11-12T22:26:29;3.00;;;2.90;;
27424;SDS011;15244;49.088;11.886;2022-11-12T22:31:50;3.08;;;2.88;;
27424;SDS011;15244;49.088;11.886;2022-11-12T22:37:10;2.88;;;2.78;;
27424;SDS011;15244;49.088;11.886;2022-11-12T22:42:31;3.00;;;2.80;;
27424;SDS011;15244;49.088;11.886;2022-11-12T22:47:51;3.20;;;3.00;;
27424;SDS011;15244;49.088;11.886;2022-11-12T22:53:12;3.38;;;3.17;;
27424;SDS011;15244;49.088;11.886;2022-11-12T22:58:33;3.20;;;3.00;;
27424;SDS011;15244;49.088;11.886;2022-11-12T23:03:56;2.90;;;2.80;;
27424;SDS011;15244;49.088;11.886;2022-11-12T23:09:17;3.20;;;3.00;;
27424;SDS011;15244;49.088;11.886;2022-11-12T23:14:37;3.85;;;3.65;;
27424;SDS011;15244;49.088;11.886;2022-11-12T23:19:58;3.33;;;3.03;;
27424;SDS011;15244;49.088;11.886;2022-11-12T23:25:18;3.60;;;3.40;;
27424;SDS011;15244;49.088;11.886;2022-11-12T23:30:38;6.18;;;3.88;;
27424;SDS011;15244;49.088;11.886;2022-11-12T23:36:03;3.33;;;3.10;;
27424;SDS011;15244;49.088;11.886;2022-11-12T23:41:27;2.78;;;2.58;;
27424;SDS011;15244;49.088;11.886;2022-11-12T23:46:47;2.60;;;2.50;;
27424;SDS011;15244;49.088;11.886;2022-11-12T23:52:08;2.83;;;2.63;;
27424;SDS011;15244;49.088;11.886;2022-11-12T23:57:28;2.60;;;2.50;;
